Time;durP1;ratioP1;P1;durP2;ratioP2;P2;SDS_P1;SDS_P2;PMS_P1;PMS_P2;Temp;Humidity;BMP_temperature;BMP_pressure;BME280_temperature;BME280_humidity;BME280_pressure;Samples;Min_cycle;Max_cycle;Signal;HPM_P1;HPM_P2
2022/02/09 00:01:30;;;;;;;2.33;1.80;;;7.70;99.90;;;7.80;69.85;99004.50;4968555;28;20056;-42
2022/02/09 00:04:08;;;;;;;3.93;1.93;;;7.60;99.90;;;7.81;69.78;99000.88;4968096;28;20062;-43
2022/02/09 00:09:19;;;;;;;3.87;1.77;;;7.70;99.90;;;7.82;69.84;99007.91;4968254;28;20260;-43
2022/02/09 00:14:46;;;;;;;3.17;1.63;;;7.70;99.90;;;7.84;69.81;99006.81;4967712;28;20054;-42
2022/02/09 00:17:39;;;;;;;2.83;1.50;;;7.70;99.90;;;7.84;69.61;99005.97;4967765;28;20057;-43
2022/02/09 00:34:44;;;;;;;4.67;1.67;;;7.70;99.90;;;7.81;69.63;99012.38;4951999;28;20046;-42
2022/02/09 01:40:08;;;;;;;1.53;1.00;;;7.70;99.90;;;7.87;69.09;98979.22;4970452;28;20057;-42
2022/02/09 01:56:37;;;;;;;1.60;1.30;;;7.70;99.90;;;7.92;69.07;98955.88;4970888;28;20389;-43
2022/02/09 01:59:05;;;;;;;2.20;1.30;;;7.70;99.90;;;7.91;69.06;98956.84;4971832;28;20064;-43
2022/02/09 02:01:34;;;;;;;0.97;0.90;;;7.70;99.90;;;7.92;68.99;98952.38;4953128;28;20058;-43
2022/02/09 02:04:03;;;;;;;1.70;1.00;;;7.80;99.90;;;7.95;68.89;98949.50;4969932;28;20058;-43
2022/02/09 02:06:34;;;;;;;2.40;1.20;;;7.80;99.90;;;7.95;69.00;98950.38;4969959;28;20457;-42
2022/02/09 02:09:03;;;;;;;1.43;1.30;;;7.80;99.90;;;7.97;69.08;98958.19;4970083;28;20065;-43
2022/02/09 02:11:38;;;;;;;1.20;0.90;;;7.80;99.90;;;7.96;68.87;98951.19;4971131;28;20054;-43
2022/02/09 02:16:45;;;;;;;;;;;7.80;99.90;;;7.95;68.80;98960.09;4970246;28;20046;-43
2022/02/09 02:30:40;;;;;;;2.67;1.30;;;7.70;99.90;;;7.92;68.82;98928.53;4970314;28;20157;-42
2022/02/09 02:44:35;;;;;;;1.50;1.00;;;7.80;99.90;;;7.93;68.80;98917.81;4970687;28;20047;-42
2022/02/09 03:11:17;;;;;;;3.00;1.87;;;7.80;99.90;;;7.98;68.54;98902.38;4969711;28;20068;-39
2022/02/09 03:13:54;;;;;;;3.10;1.60;;;7.80;99.90;;;8.01;68.47;98906.63;4969092;28;20058;-38
2022/02/09 03:16:30;;;;;;;3.87;1.77;;;7.90;99.90;;;8.02;68.59;98895.88;4968165;28;20055;-39
2022/02/09 03:24:18;;;;;;;2.90;1.53;;;7.90;99.90;;;8.01;68.50;98894.22;4970177;28;20061;-39
2022/02/09 03:43:39;;;;;;;2.37;1.27;;;7.80;99.90;;;8.03;68.07;98888.81;4968162;28;20061;-39
2022/02/09 03:59:13;;;;;;;3.97;1.73;;;7.80;99.90;;;8.01;67.92;98878.31;4967699;28;20057;-39
2022/02/09 04:01:43;;;;;;;3.23;1.80;;;7.80;99.90;;;8.03;67.69;98876.38;4983470;28;20427;-39
2022/02/09 04:04:12;;;;;;;2.93;1.60;;;7.90;99.90;;;8.04;67.77;98883.34;4967294;28;20058;-39
2022/02/09 04:06:41;;;;;;;1.60;1.40;;;7.90;99.90;;;8.05;67.72;98877.09;4968179;28;20268;-39
2022/02/09 04:09:14;;;;;;;3.97;1.60;;;7.90;99.90;;;8.05;67.62;98876.28;4968647;28;20244;-39
2022/02/09 04:43:59;;;;;;;2.90;1.37;;;7.80;99.90;;;8.06;67.43;98875.28;4967166;28;20035;-38
2022/02/09 04:57:28;;;;;;;3.03;1.40;;;7.90;99.90;;;8.05;67.14;98869.16;4968090;28;20095;-38
2022/02/09 04:59:58;;;;;;;5.43;1.50;;;7.80;99.90;;;8.05;66.99;98866.50;4968099;28;20057;-38
2022/02/09 05:05:36;;;;;;;3.33;2.10;;;7.80;99.90;;;8.04;67.02;98856.84;4968568;28;20073;-38
2022/02/09 05:24:20;;;;;;;4.20;3.00;;;7.80;99.90;;;8.05;66.81;98861.19;4968037;28;20065;-39
2022/02/09 05:29:26;;;;;;;2.33;1.70;;;7.90;99.90;;;8.09;66.93;98849.38;4967642;28;20065;-39
2022/02/09 05:31:55;;;;;;;4.50;1.80;;;7.90;99.90;;;8.08;67.00;98852.16;4971465;28;20215;-37
2022/02/09 05:34:23;;;;;;;2.83;2.27;;;7.90;99.90;;;8.08;66.83;98852.16;4971975;28;20054;-38
2022/02/09 05:36:51;;;;;;;3.30;2.23;;;7.90;99.90;;;8.08;66.89;98853.03;4971488;28;20057;-38
2022/02/09 05:39:19;;;;;;;4.33;2.10;;;7.90;99.90;;;8.08;66.72;98853.03;4971928;28;20414;-38
2022/02/09 05:41:48;;;;;;;4.23;2.87;;;7.90;99.90;;;8.09;66.87;98859.16;4971294;28;20051;-38
2022/02/09 05:44:16;;;;;;;4.17;1.97;;;7.90;99.90;;;8.11;66.79;98856.41;4969376;28;20065;-39
2022/02/09 05:47:35;;;;;;;3.97;1.80;;;7.90;99.90;;;8.12;67.00;98853.59;4970851;28;20063;-38
2022/02/09 05:52:52;;;;;;;2.40;1.70;;;7.90;99.90;;;8.08;66.68;98860.97;4969263;28;20047;-38
2022/02/09 05:57:51;;;;;;;5.07;1.73;;;7.90;99.90;;;8.08;66.51;98868.94;4971285;28;20055;-38
2022/02/09 06:00:20;;;;;;;3.87;1.90;;;7.90;99.90;;;8.08;66.45;98863.63;4970745;28;20053;-38
2022/02/09 06:02:48;;;;;;;2.70;1.70;;;7.90;99.90;;;8.08;66.46;98866.28;4969685;28;20244;-38
2022/02/09 06:05:16;;;;;;;5.27;1.70;;;7.90;99.90;;;8.08;66.58;98868.94;4970153;28;20055;-39
2022/02/09 06:07:52;;;;;;;3.67;1.93;;;7.90;99.90;;;8.11;66.51;98873.16;4971620;28;20057;-38
2022/02/09 06:10:26;;;;;;;2.20;1.80;;;7.90;99.90;;;8.11;66.66;98874.97;4971054;28;20222;-38
2022/02/09 06:16:06;;;;;;;6.23;1.80;;;7.90;99.90;;;8.09;66.39;98872.44;4969173;28;19918;-38
2022/02/09 06:21:26;;;;;;;2.63;1.73;;;7.90;99.90;;;8.11;66.54;98878.47;4970921;28;20245;-38
2022/02/09 06:23:54;;;;;;;2.07;1.60;;;8.00;99.90;;;8.13;66.65;98878.34;4969363;28;20057;-38
2022/02/09 06:26:22;;;;;;;2.77;1.67;;;8.00;99.90;;;8.14;66.28;98877.38;4970727;28;20364;-38
2022/02/09 06:28:52;;;;;;;2.47;1.53;;;8.00;99.90;;;8.14;66.38;98880.84;4984891;28;20047;-38
2022/02/09 06:31:20;;;;;;;2.10;1.40;;;7.90;99.90;;;8.12;66.28;98874.81;4969119;28;20053;-38
2022/02/09 06:33:49;;;;;;;3.03;1.43;;;7.90;99.90;;;8.11;66.30;98878.47;4967097;28;20210;-38
2022/02/09 06:36:22;;;;;;;5.10;2.00;;;7.90;99.90;;;8.11;66.29;98874.97;4969162;28;20348;-38
2022/02/09 06:38:51;;;;;;;2.58;1.33;;;7.90;99.90;;;8.10;66.17;98868.78;4969951;28;20051;-38
2022/02/09 06:41:19;;;;;;;2.47;1.70;;;7.90;99.90;;;8.11;66.23;98872.31;4969185;28;20053;-38
2022/02/09 06:43:47;;;;;;;2.97;1.50;;;7.90;99.90;;;8.09;66.12;98870.59;4970778;28;20050;-38
2022/02/09 06:46:16;;;;;;;3.80;1.50;;;7.90;99.90;;;8.09;66.00;98867.97;4969601;28;20386;-38
2022/02/09 06:48:44;;;;;;;1.80;1.20;;;7.90;99.90;;;8.10;66.28;98866.13;4969947;28;20222;-39
2022/02/09 06:51:15;;;;;;;4.83;1.80;;;7.90;99.90;;;8.11;66.26;98864.34;4969446;28;20058;-39
2022/02/09 06:53:49;;;;;;;3.70;1.93;;;8.00;99.90;;;8.09;66.11;98862.66;4969330;28;20058;-39
2022/02/09 06:56:36;;;;;;;8.98;3.88;;;7.90;99.90;;;8.09;65.82;98862.66;4969214;28;20347;-39
2022/02/09 06:59:21;;;;;;;8.67;4.20;;;7.90;99.90;;;8.06;65.96;98864.69;4969368;28;20055;-39
2022/02/09 07:01:49;;;;;;;4.53;2.43;;;7.90;99.90;;;8.06;66.28;98868.22;4969417;28;20047;-38
2022/02/09 07:04:17;;;;;;;4.70;2.37;;;7.80;99.90;;;8.08;66.23;98862.75;4968782;28;20055;-39
2022/02/09 07:06:46;;;;;;;5.13;2.00;;;7.90;99.90;;;8.08;66.23;98855.69;4968523;28;20055;-39
2022/02/09 07:09:14;;;;;;;5.63;2.33;;;7.90;99.90;;;8.10;66.07;98871.44;4969013;28;20072;-40
2022/02/09 07:11:42;;;;;;;5.83;2.13;;;7.90;99.90;;;8.12;66.30;98871.34;4968857;28;20062;-39
2022/02/09 07:14:10;;;;;;;2.53;1.50;;;8.00;99.90;;;8.12;65.97;98861.56;4969497;28;20062;-39
2022/02/09 07:16:39;;;;;;;4.40;2.27;;;7.90;99.90;;;8.12;65.95;98863.38;4969583;28;20253;-39
2022/02/09 07:19:09;;;;;;;5.90;1.50;;;8.00;99.90;;;8.14;65.83;98872.06;4970101;28;20059;-39
2022/02/09 07:21:39;;;;;;;4.93;1.90;;;8.00;99.90;;;8.15;66.09;98868.47;4969964;28;20421;-38
2022/02/09 07:24:17;;;;;;;1.83;1.30;;;8.00;99.90;;;8.16;66.10;98868.34;4968593;28;20072;-38
2022/02/09 07:29:19;;;;;;;5.67;2.17;;;8.00;99.90;;;8.16;65.73;98863.06;4969563;28;20073;-38
2022/02/09 07:31:47;;;;;;;2.53;1.60;;;8.00;99.90;;;8.17;65.86;98870.03;4968405;28;20353;-38
2022/02/09 07:34:15;;;;;;;4.07;1.97;;;8.00;99.90;;;8.19;65.87;98860.16;4970149;28;20304;-38
2022/02/09 07:36:45;;;;;;;4.40;1.90;;;8.00;99.90;;;8.22;65.69;98864.38;4968870;28;20054;-38
2022/02/09 07:39:14;;;;;;;4.60;1.67;;;8.10;99.90;;;8.24;65.79;98862.47;4969458;28;20047;-38
2022/02/09 07:41:44;;;;;;;2.60;1.53;;;8.10;99.90;;;8.25;65.71;98864.16;4969135;28;20064;-38
2022/02/09 07:44:19;;;;;;;5.13;2.30;;;8.10;99.90;;;8.25;65.52;98862.31;4968284;28;20054;-39
2022/02/09 07:52:23;;;;;;;5.20;1.70;;;8.00;99.90;;;8.21;65.43;98863.53;4966984;28;20063;-38
2022/02/09 07:54:54;;;;;;;4.33;1.87;;;8.00;99.90;;;8.17;65.32;98855.94;4968046;28;20050;-38
2022/02/09 07:57:22;;;;;;;3.30;1.43;;;8.00;99.90;;;8.15;65.38;98860.50;4983367;28;20276;-38
2022/02/09 07:59:50;;;;;;;5.87;3.13;;;7.90;99.90;;;8.14;65.41;98859.63;4968344;28;20057;-38
2022/02/09 08:02:18;;;;;;;6.70;2.03;;;7.90;99.90;;;8.13;65.30;98857.13;4968395;28;20046;-39
2022/02/09 08:04:46;;;;;;;3.20;2.00;;;7.90;99.90;;;8.12;65.33;98850.13;4983482;28;20070;-38
2022/02/09 08:07:15;;;;;;;5.67;3.00;;;7.90;99.90;;;8.12;65.32;98852.78;4967900;28;20047;-38
2022/02/09 08:09:45;;;;;;;5.57;2.03;;;7.90;99.90;;;8.14;65.43;98848.19;4969078;28;20379;-38
2022/02/09 08:20:27;;;;;;;6.73;2.70;;;7.90;99.90;;;8.13;65.39;98839.41;4967080;28;20061;-38
2022/02/09 08:22:28;;;;;;;4.13;1.53;;;7.90;99.90;;;8.13;65.65;98836.75;4968193;28;20061;-38
2022/02/09 08:29:01;;;;;;;3.80;1.83;;;7.90;99.90;;;8.17;65.46;98834.72;4968208;28;20051;-38
2022/02/09 08:31:58;;;;;;;4.23;2.10;;;8.00;99.90;;;8.16;65.55;98823.25;4968077;28;20046;-38
2022/02/09 08:34:26;;;;;;;2.77;1.70;;;8.00;99.90;;;8.13;65.51;98822.66;4967866;28;20050;-39
2022/02/09 08:36:56;;;;;;;4.13;1.40;;;7.90;99.90;;;8.14;65.59;98821.66;4968510;28;20046;-38
2022/02/09 08:39:25;;;;;;;3.53;2.10;;;8.00;99.90;;;8.15;65.68;98821.56;4968635;28;20057;-38
2022/02/09 08:41:54;;;;;;;8.73;2.30;;;7.90;99.90;;;8.17;65.68;98826.75;4967869;28;20061;-39
2022/02/09 08:44:24;;;;;;;4.97;1.73;;;8.00;99.90;;;8.18;65.51;98821.34;4965700;28;20055;-38
2022/02/09 08:46:52;;;;;;;4.83;1.87;;;8.00;99.90;;;8.20;65.67;98821.19;4968032;28;20056;-39
2022/02/09 08:49:21;;;;;;;6.77;1.90;;;8.00;99.90;;;8.19;65.55;98815.06;4966987;28;20063;-39
2022/02/09 08:51:49;;;;;;;3.30;1.60;;;8.00;99.90;;;8.20;65.58;98815.88;4982967;28;20058;-38
2022/02/09 08:54:18;;;;;;;3.10;1.47;;;8.10;99.90;;;8.24;65.48;98817.38;4968200;28;20046;-39
2022/02/09 08:56:46;;;;;;;3.50;2.30;;;8.10;99.90;;;8.26;65.57;98818.94;4968477;28;20046;-38
2022/02/09 08:59:15;;;;;;;5.03;1.87;;;8.10;99.90;;;8.25;65.49;98809.25;4967312;28;20054;-38
2022/02/09 09:01:48;;;;;;;5.37;2.67;;;8.10;99.90;;;8.28;65.59;98813.50;4958519;28;20431;-38
2022/02/09 09:04:21;;;;;;;5.13;2.23;;;8.10;99.90;;;8.32;65.68;98820.28;4974147;28;20066;-39
2022/02/09 09:06:55;;;;;;;6.13;2.47;;;8.20;99.90;;;8.36;65.79;98815.56;4978571;28;20061;-38
2022/02/09 10:33:10;;;;;;;6.30;2.53;;;8.90;96.90;;;9.00;64.11;98783.97;4989058;28;20054;-39
2022/02/09 10:35:44;;;;;;;8.10;3.03;;;8.90;96.80;;;9.03;64.12;98772.25;4989653;28;20046;-39
2022/02/09 10:38:39;;;;;;;4.63;2.57;;;9.00;96.60;;;9.04;63.99;98761.50;4989156;28;20050;-39
2022/02/09 10:41:28;;;;;;;8.93;2.93;;;9.00;95.50;;;9.05;63.83;98767.66;4987893;28;20058;-46
2022/02/09 10:44:10;;;;;;;5.70;3.00;;;9.00;95.60;;;9.06;63.28;98762.22;4970648;28;20050;-46
2022/02/09 10:46:52;;;;;;;4.87;2.70;;;9.10;95.30;;;9.13;63.93;98751.97;4988978;28;20221;-45
2022/02/09 10:49:24;;;;;;;3.90;2.77;;;9.10;94.70;;;9.16;63.71;98746.38;4988898;28;20058;-46
2022/02/09 10:54:29;;;;;;;5.03;2.53;;;9.20;94.50;;;9.23;63.52;98744.91;4988693;28;20054;-45
2022/02/09 10:57:00;;;;;;;4.33;2.47;;;9.20;94.00;;;9.29;63.82;98737.41;4988685;28;20530;-47
2022/02/09 10:59:30;;;;;;;4.03;2.27;;;9.30;93.80;;;9.32;63.15;98735.31;4989602;28;20052;-45
2022/02/09 11:02:01;;;;;;;5.63;2.07;;;9.30;93.20;;;9.36;63.56;98739.41;4970978;28;20175;-46
2022/02/09 11:04:32;;;;;;;7.63;2.97;;;9.40;92.90;;;9.37;63.36;98721.69;4989079;28;20065;-46
2022/02/09 11:07:02;;;;;;;3.40;1.93;;;9.40;93.10;;;9.39;63.38;98720.56;4989101;28;20050;-45
2022/02/09 11:09:30;;;;;;;8.20;2.43;;;9.40;92.70;;;9.41;63.22;98715.13;4988448;28;20052;-45
2022/02/09 11:11:58;;;;;;;6.03;2.63;;;9.40;92.30;;;9.43;63.33;98713.19;4988331;28;20049;-45
2022/02/09 11:14:27;;;;;;;4.17;2.60;;;9.50;92.40;;;9.46;63.33;98708.47;4987668;28;20065;-45
2022/02/09 11:17:04;;;;;;;5.70;2.60;;;9.50;92.20;;;9.51;62.99;98708.06;4987795;28;20057;-43
2022/02/09 11:19:39;;;;;;;5.60;2.53;;;9.50;91.30;;;9.56;62.96;98705.03;4987985;28;20050;-45
2022/02/09 11:22:12;;;;;;;7.77;2.97;;;9.60;91.30;;;9.59;63.07;98697.63;4952458;28;20059;-44
2022/02/09 11:24:46;;;;;;;12.00;3.25;;;9.60;90.90;;;9.64;62.85;98697.25;4968799;28;20047;-43
2022/02/09 11:27:31;;;;;;;6.87;2.57;;;9.70;91.00;;;9.66;62.68;98693.47;4967435;28;20058;-45
2022/02/09 11:30:50;;;;;;;7.37;2.57;;;9.70;90.60;;;9.66;62.64;98685.50;4968971;28;20065;-44
2022/02/09 11:36:19;;;;;;;5.33;2.20;;;9.80;90.50;;;9.76;62.99;98684.72;4968645;28;20046;-44
2022/02/09 11:38:52;;;;;;;5.80;2.60;;;9.80;88.70;;;9.77;62.72;98681.09;4967944;28;20057;-44
2022/02/09 11:41:31;;;;;;;4.28;2.40;;;9.80;89.40;;;9.77;62.62;98676.63;4967082;28;20050;-44
2022/02/09 11:44:04;;;;;;;7.03;1.77;;;9.80;89.60;;;9.80;62.32;98683.50;4966855;28;20380;-42
2022/02/09 11:47:17;;;;;;;5.35;2.13;;;9.80;89.10;;;9.84;62.27;98684.91;4968414;28;20055;-43
2022/02/09 11:50:10;;;;;;;8.00;2.43;;;9.90;88.80;;;9.85;62.62;98681.28;4968138;28;20061;-43
2022/02/09 11:52:52;;;;;;;4.30;2.70;;;9.90;88.70;;;9.91;62.42;98675.44;4969318;28;20059;-44
2022/02/09 12:01:34;;;;;;;4.47;2.10;;;10.10;88.60;;;10.07;62.27;98664.31;4966980;28;20345;-45
2022/02/09 12:09:41;;;;;;;5.87;2.20;;;10.20;87.20;;;10.14;62.48;98652.16;4967117;28;20067;-44
2022/02/09 12:12:17;;;;;;;6.13;2.63;;;10.20;87.20;;;10.22;61.81;98649.69;4968022;28;20059;-45
2022/02/09 12:17:36;;;;;;;4.37;2.80;;;10.40;85.70;;;10.32;62.05;98646.25;4968841;28;20057;-43
2022/02/09 12:20:19;;;;;;;5.33;2.80;;;10.40;86.60;;;10.38;62.34;98637.72;4968104;28;20061;-44
2022/02/09 12:25:44;;;;;;;4.00;2.83;;;10.60;86.20;;;10.51;62.24;98632.16;4968099;28;20110;-44
2022/02/09 12:28:26;;;;;;;4.00;1.90;;;10.60;86.10;;;10.56;62.01;98629.91;4967882;28;20063;-44
2022/02/09 12:31:08;;;;;;;5.88;3.10;;;10.70;85.50;;;10.64;62.00;98627.38;4966899;28;20050;-43
2022/02/09 12:33:51;;;;;;;4.18;2.58;;;10.80;85.10;;;10.71;60.33;98622.38;4967734;28;20066;-45
2022/02/09 12:36:25;;;;;;;4.23;2.00;;;10.90;84.60;;;10.79;61.57;98617.19;4963302;28;20210;-47
2022/02/09 12:38:59;;;;;;;4.93;2.30;;;10.90;84.30;;;10.84;61.16;98606.97;4969316;28;20244;-44
2022/02/09 12:41:27;;;;;;;8.40;2.95;;;11.00;83.80;;;10.91;61.44;98602.75;4971518;28;20535;-46
2022/02/09 12:43:59;;;;;;;4.97;2.53;;;11.00;84.30;;;10.96;61.53;98603.19;4970420;28;20061;-45
2022/02/09 12:46:38;;;;;;;8.95;5.72;;;11.20;84.30;;;11.04;61.49;98605.13;4972320;28;20049;-45
2022/02/09 12:49:12;;;;;;;6.30;3.70;;;11.20;83.70;;;11.11;61.26;98597.41;4971136;28;20073;-44
2022/02/09 12:51:44;;;;;;;6.60;3.58;;;11.30;83.80;;;11.15;61.58;98599.66;4971402;28;20363;-44
2022/02/09 12:54:15;;;;;;;7.40;4.13;;;11.40;83.60;;;11.22;61.55;98603.47;4970628;28;20073;-43
2022/02/09 12:56:50;;;;;;;10.00;3.75;;;11.40;83.70;;;11.28;61.56;98603.84;4970687;28;20046;-47
2022/02/09 12:59:20;;;;;;;4.30;3.07;;;11.50;83.20;;;11.33;61.17;98606.94;4971624;28;20068;-44
2022/02/09 13:01:52;;;;;;;11.43;7.00;;;11.60;82.90;;;11.37;61.10;98597.66;4970860;28;20059;-43
2022/02/09 13:04:36;;;;;;;9.75;4.10;;;11.60;82.30;;;11.41;60.99;98597.22;4971348;28;20060;-45
2022/02/09 13:07:15;;;;;;;7.85;2.95;;;11.60;81.50;;;11.48;61.07;98586.84;4955318;28;20059;-43
2022/02/09 13:09:51;;;;;;;4.55;2.60;;;11.70;81.00;;;11.52;60.97;98582.91;4971608;28;20058;-44
2022/02/09 13:12:27;;;;;;;6.13;3.90;;;11.70;81.20;;;11.59;60.63;98584.03;4970939;28;20069;-45
2022/02/09 13:15:09;;;;;;;8.00;3.40;;;11.80;80.40;;;11.61;60.37;98576.72;4971767;28;20062;-44
2022/02/09 14:15:24;;;;;;;3.40;1.83;;;12.60;72.70;;;12.47;57.89;98526.72;4970003;28;20042;-44
2022/02/09 14:33:17;;;;;;;4.85;2.78;;;13.00;71.70;;;12.69;57.37;98520.91;4969099;28;20059;-43
2022/02/09 14:53:16;;;;;;;11.93;5.20;;;13.20;70.20;;;12.95;57.08;98514.78;4969182;28;20054;-43
2022/02/09 14:58:34;;;;;;;6.22;2.67;;;13.30;70.20;;;13.01;56.93;98506.16;4969270;28;20053;-44
2022/02/09 15:01:08;;;;;;;3.33;1.60;;;13.30;70.30;;;13.07;56.93;98510.06;4969093;28;20253;-44
2022/02/09 15:03:48;;;;;;;3.88;2.97;;;13.40;70.20;;;13.12;56.70;98513.06;4968609;28;20055;-44
2022/02/09 15:06:45;;;;;;;4.30;2.28;;;13.40;69.70;;;13.14;56.44;98513.75;4969552;28;20047;-44
2022/02/09 15:09:40;;;;;;;4.13;2.20;;;13.40;69.20;;;13.14;56.41;98511.09;4968886;28;20395;-43
2022/02/09 15:22:43;;;;;;;4.82;2.55;;;13.40;70.10;;;13.18;56.19;98515.97;4968654;28;20057;-43
2022/02/09 15:25:18;;;;;;;4.82;3.20;;;13.30;69.70;;;13.16;56.38;98511.75;4968082;28;20418;-44
2022/02/09 15:27:49;;;;;;;6.93;4.40;;;13.30;69.90;;;13.14;56.30;98508.41;4969594;28;20242;-44
2022/02/09 15:30:17;;;;;;;23.58;10.50;;;13.30;69.60;;;13.12;56.02;98508.56;4969008;28;20062;-44
2022/02/09 15:32:51;;;;;;;35.42;14.20;;;13.20;69.50;;;13.10;56.20;98513.22;4969637;28;20046;-46
2022/02/09 15:35:42;;;;;;;15.55;7.82;;;13.20;69.70;;;13.09;56.04;98497.38;4968144;28;20358;-44
2022/02/09 15:38:14;;;;;;;17.50;9.15;;;13.20;69.50;;;13.09;56.21;98495.53;4966956;28;20055;-45
2022/02/09 15:40:53;;;;;;;10.15;5.20;;;13.20;69.60;;;13.09;56.22;98494.69;4968709;28;20065;-44
2022/02/09 15:43:58;;;;;;;7.40;3.33;;;13.20;69.90;;;13.06;55.99;98490.47;4968308;28;20057;-44
2022/02/09 16:06:10;;;;;;;3.42;1.58;;;12.70;69.50;;;12.53;54.60;98486.06;4970980;28;20252;-44
2022/02/09 16:16:30;;;;;;;4.30;1.90;;;12.40;68.30;;;12.31;54.40;98479.31;4967946;28;20203;-44
2022/02/09 16:22:01;;;;;;;5.43;3.28;;;12.00;68.00;;;12.10;55.01;98474.28;4968045;28;20047;-45
2022/02/09 16:25:20;;;;;;;4.50;2.47;;;12.00;68.50;;;12.04;54.95;98473.06;4967551;28;20043;-45
2022/02/09 16:37:07;;;;;;;5.50;3.25;;;11.70;69.70;;;11.74;56.20;98476.84;4968048;28;20046;-45
2022/02/09 16:46:56;;;;;;;6.68;3.28;;;11.20;71.10;;;11.42;56.14;98470.13;4966920;28;20047;-44
2022/02/09 16:52:04;;;;;;;15.50;11.25;;;11.10;71.10;;;11.26;55.80;98477.88;4966473;28;20059;-44
2022/02/09 17:21:23;;;;;;;5.13;2.53;;;10.20;72.20;;;10.48;57.27;98488.66;4969229;28;20313;-44
2022/02/09 17:23:54;;;;;;;5.60;3.07;;;10.20;72.50;;;10.41;56.90;98483.91;4968261;28;20046;-45
2022/02/09 17:26:22;;;;;;;5.50;3.43;;;10.10;72.80;;;10.33;57.21;98486.41;4968670;28;20057;-46
2022/02/09 17:29:04;;;;;;;5.47;2.77;;;10.00;73.10;;;10.25;57.44;98481.75;4970787;28;20344;-44
2022/02/09 17:31:54;;;;;;;7.40;2.80;;;9.80;73.40;;;10.17;57.23;98478.91;4971836;28;20061;-45
2022/02/09 17:37:35;;;;;;;5.83;2.97;;;9.60;74.00;;;9.98;57.84;98474.44;4970897;28;20055;-44
2022/02/09 17:53:34;;;;;;;8.97;3.60;;;9.10;74.80;;;9.50;58.08;98479.59;4971422;28;20092;-43
2022/02/09 17:56:13;;;;;;;9.07;5.57;;;9.00;75.30;;;9.45;58.02;98477.34;4970263;28;20051;-43
2022/02/09 17:58:50;;;;;;;8.27;7.17;;;9.00;75.70;;;9.44;58.37;98488.94;4970823;28;20065;-45
2022/02/09 18:01:21;;;;;;;6.80;5.13;;;8.90;75.80;;;9.37;58.49;98482.50;4969983;28;20061;-44
2022/02/09 18:03:53;;;;;;;14.23;8.30;;;8.80;75.80;;;9.34;58.60;98488.06;4969019;28;20055;-43
2022/02/09 18:06:27;;;;;;;11.43;7.43;;;8.90;76.00;;;9.32;58.49;98482.88;4970775;28;20252;-44
2022/02/09 18:09:08;;;;;;;7.57;5.00;;;8.90;75.70;;;9.30;58.56;98482.16;4970537;28;20069;-44
2022/02/09 18:31:08;;;;;;;4.73;3.00;;;8.50;76.70;;;8.98;58.84;98479.63;4969944;28;20264;-45
2022/02/09 18:33:53;;;;;;;6.10;3.50;;;8.60;76.50;;;8.96;58.62;98481.59;4968197;28;20134;-44
2022/02/09 18:44:28;;;;;;;;;;;8.40;76.70;;;8.77;59.05;98484.94;4969317;28;20058;-46
2022/02/09 18:47:08;;;;;;;11.63;6.20;;;8.30;77.50;;;8.76;58.97;98476.16;4968692;28;20234;-44
2022/02/09 19:03:33;;;;;;;12.33;8.03;;;8.10;76.80;;;8.54;59.24;98461.16;4967665;28;20043;-38
2022/02/09 19:06:16;;;;;;;11.23;6.03;;;8.10;77.20;;;8.47;59.38;98454.69;4967957;28;20118;-38
2022/02/09 19:09:00;;;;;;;8.70;4.60;;;8.00;77.60;;;8.45;59.95;98454.81;4968764;28;20374;-38
2022/02/09 19:30:49;;;;;;;6.50;3.57;;;7.80;79.10;;;8.24;60.23;98432.72;4926016;29;20085;-38
2022/02/09 19:47:00;;;;;;;5.10;4.03;;;7.70;79.70;;;8.12;60.51;98433.69;4968043;28;20059;-38
2022/02/09 19:55:18;;;;;;;16.97;9.60;;;7.70;80.30;;;8.08;60.71;98427.81;4968311;28;20062;-38
2022/02/09 19:57:47;;;;;;;31.57;12.33;;;7.70;80.70;;;8.04;60.92;98421.91;4968150;28;20051;-38
2022/02/09 20:00:19;;;;;;;46.27;19.10;;;7.60;80.70;;;8.03;61.41;98424.69;4967169;28;20054;-37
2022/02/09 20:02:48;;;;;;;42.83;20.77;;;7.60;81.40;;;8.03;61.21;98428.19;4966334;28;20050;-38
2022/02/09 20:05:17;;;;;;;68.87;28.63;;;7.60;81.70;;;8.06;61.36;98421.78;4967707;28;20042;-37
2022/02/09 20:07:46;;;;;;;65.13;31.57;;;7.70;81.60;;;8.04;61.47;98423.72;4966873;28;20076;-38
2022/02/09 20:10:14;;;;;;;44.93;30.53;;;7.70;82.20;;;8.04;61.59;98429.03;4967249;28;20058;-38
2022/02/09 20:12:43;;;;;;;47.00;34.23;;;7.70;82.50;;;8.04;61.72;98431.69;4966999;28;20059;-38
2022/02/09 20:15:13;;;;;;;71.07;33.67;;;7.50;82.70;;;8.04;61.56;98429.84;4967329;28;20058;-38
2022/02/09 20:17:42;;;;;;;68.47;33.80;;;7.70;82.60;;;8.04;61.62;98424.56;4968383;28;20313;-38
2022/02/09 20:20:16;;;;;;;42.63;21.00;;;7.60;82.60;;;8.01;61.58;98421.34;4966879;28;20050;-38
2022/02/09 20:22:44;;;;;;;;;;;7.60;83.00;;;7.96;61.70;98420.88;4967137;28;20085;-38
2022/02/09 20:25:13;;;;;;;29.60;16.57;;;7.50;84.50;;;7.97;61.73;98417.22;4966674;28;20227;-38
2022/02/09 20:27:41;;;;;;;26.60;14.27;;;7.50;83.90;;;7.95;61.86;98417.38;4967130;28;20065;-38
2022/02/09 20:30:13;;;;;;;40.67;25.20;;;7.50;83.80;;;7.93;61.92;98414.00;4967139;28;20055;-43
2022/02/09 20:32:48;;;;;;;22.10;12.47;;;7.50;84.20;;;7.94;62.04;98420.16;4966297;28;20069;-38
2022/02/09 20:35:17;;;;;;;18.30;11.73;;;7.50;84.20;;;7.91;62.07;98413.31;4966122;28;20055;-38
2022/02/09 20:37:49;;;;;;;12.70;7.37;;;7.50;84.70;;;7.90;62.14;98406.28;4967438;28;20051;-38
2022/02/09 20:40:36;;;;;;;35.47;19.33;;;7.50;85.50;;;7.90;62.43;98406.28;4966629;28;20043;-38
2022/02/09 20:43:06;;;;;;;39.17;25.20;;;7.50;85.10;;;7.89;62.43;98417.88;4967334;28;20054;-38
2022/02/09 20:45:44;;;;;;;14.80;10.97;;;7.50;84.60;;;7.89;62.06;98418.72;4967183;28;20395;-38
2022/02/09 20:48:15;;;;;;;7.70;6.70;;;7.60;83.70;;;7.93;62.14;98414.00;4966494;28;20237;-38
2022/02/09 20:50:44;;;;;;;9.10;6.50;;;7.60;82.70;;;7.96;61.68;98416.41;4966993;28;20065;-38
2022/02/09 20:53:14;;;;;;;5.80;4.43;;;7.70;81.80;;;8.00;61.47;98415.16;4966849;28;20379;-38
2022/02/09 20:55:43;;;;;;;8.93;6.90;;;7.70;80.40;;;8.01;61.14;98414.22;4965383;28;20077;-38
2022/02/09 20:58:11;;;;;;;6.30;3.93;;;7.70;79.40;;;8.01;60.25;98416.88;4967865;28;20063;-38
2022/02/09 21:00:46;;;;;;;6.17;3.27;;;7.70;77.00;;;8.01;60.12;98421.34;4967459;28;20062;-38
2022/02/09 21:24:43;;;;;;;5.93;3.40;;;7.70;72.70;;;8.04;58.24;98411.28;4969082;28;20051;-39
2022/02/09 21:32:43;;;;;;;7.65;3.72;;;7.70;71.70;;;8.01;57.90;98403.59;4969495;28;20340;-37
2022/02/09 21:57:03;;;;;;;4.17;2.83;;;7.60;71.10;;;7.86;56.53;98395.09;4970405;28;20616;-38
2022/02/09 22:21:18;;;;;;;5.83;3.47;;;7.40;68.90;;;7.76;56.47;98370.31;4969816;28;20062;-38
2022/02/09 22:26:47;;;;;;;5.23;3.70;;;7.40;69.00;;;7.71;56.19;98367.19;4969509;28;20059;-38
2022/02/09 22:30:30;;;;;;;5.40;2.77;;;7.30;69.10;;;7.67;56.15;98363.94;4969993;28;20263;-38
2022/02/09 22:32:44;;;;;;;4.33;2.67;;;7.30;69.20;;;7.63;56.30;98357.22;4966619;28;20066;-38
2022/02/09 22:56:42;;;;;;;4.90;3.10;;;7.00;68.20;;;7.32;56.00;98348.25;4970334;28;20464;-38
2022/02/09 22:59:18;;;;;;;4.80;2.70;;;6.90;68.50;;;7.29;55.62;98351.19;4970022;28;20261;-38
2022/02/09 23:01:51;;;;;;;6.20;3.73;;;6.90;68.30;;;7.32;56.11;98342.97;4968917;28;20050;-39
2022/02/09 23:10:01;;;;;;;5.97;3.30;;;6.90;68.00;;;7.29;55.89;98343.22;4968683;28;20061;-38
2022/02/09 23:12:41;;;;;;;9.33;3.27;;;6.90;68.10;;;7.25;55.91;98339.97;4968656;28;20073;-38
2022/02/09 23:53:51;;;;;;;6.20;2.73;;;6.60;68.50;;;6.96;55.69;98318.47;4967925;28;20062;-39
